Time;durP1;ratioP1;P1;durP2;ratioP2;P2;SDS_P1;SDS_P2;PMS_P1;PMS_P2;Temp;Humidity;BMP_temperature;BMP_pressure;BME280_temperature;BME280_humidity;BME280_pressure;Samples;Min_cycle;Max_cycle;Signal;HPM_P1;HPM_P2
2021/12/08 00:02:04;;;;;;;;;;;24.90;44.80;;;;;;5100167;28;1016;-30
2021/12/08 00:04:30;;;;;;;;;;;24.90;44.90;;;;;;5099752;28;1024;-31
2021/12/08 00:06:58;;;;;;;;;;;24.90;44.80;;;;;;5100075;28;1269;-31
2021/12/08 00:09:34;;;;;;;;;;;24.80;44.90;;;;;;5100039;28;1902;-31
2021/12/08 00:14:45;;;;;;;;;;;24.70;44.80;;;;;;5098945;28;939;-29
2021/12/08 00:17:12;;;;;;;;;;;24.80;45.10;;;;;;5099839;28;1035;-32
2021/12/08 00:19:38;;;;;;;;;;;25.00;44.80;;;;;;5100035;28;1046;-30
2021/12/08 00:22:07;;;;;;;;;;;24.90;44.90;;;;;;5099473;28;1035;-31
2021/12/08 00:24:34;;;;;;;;;;;24.90;44.80;;;;;;5098740;28;1028;-32
2021/12/08 00:27:00;;;;;;;;;;;24.70;45.10;;;;;;5099032;28;941;-31
2021/12/08 00:29:27;;;;;;;;;;;24.70;45.10;;;;;;5098543;28;1897;-32
2021/12/08 00:31:54;;;;;;;;;;;24.60;45.40;;;;;;5098300;28;953;-31
2021/12/08 00:34:21;;;;;;;;;;;24.60;45.40;;;;;;5098794;28;965;-30
2021/12/08 00:36:51;;;;;;;;;;;24.60;45.40;;;;;;5099516;28;913;-31
2021/12/08 00:39:19;;;;;;;;;;;24.60;45.60;;;;;;5099519;28;1024;-31
2021/12/08 00:41:45;;;;;;;;;;;24.60;45.40;;;;;;5099484;28;971;-31
2021/12/08 00:44:12;;;;;;;;;;;24.50;45.40;;;;;;5099311;28;964;-29
2021/12/08 00:46:39;;;;;;;;;;;24.80;45.10;;;;;;5099645;28;998;-30
2021/12/08 00:49:06;;;;;;;;;;;24.80;45.10;;;;;;5099332;28;1910;-29
2021/12/08 00:51:33;;;;;;;;;;;24.60;45.00;;;;;;5099292;28;1805;-29
2021/12/08 00:54:00;;;;;;;;;;;24.80;45.00;;;;;;5098772;28;976;-32
2021/12/08 00:56:28;;;;;;;;;;;24.90;45.00;;;;;;5099381;28;976;-30
2021/12/08 00:58:57;;;;;;;;;;;24.90;44.70;;;;;;5098846;28;1043;-32
2021/12/08 01:01:24;;;;;;;;;;;24.70;44.90;;;;;;5099244;28;1007;-30
2021/12/08 01:03:51;;;;;;;;;;;24.70;45.00;;;;;;5099047;28;872;-32
2021/12/08 01:06:19;;;;;;;;;;;24.60;45.20;;;;;;5099518;28;988;-34
2021/12/08 01:08:46;;;;;;;;;;;24.80;45.10;;;;;;5098805;28;1989;-34
2021/12/08 01:11:15;;;;;;;;;;;24.80;45.00;;;;;;5099168;28;1152;-32
2021/12/08 01:13:44;;;;;;;;;;;24.80;44.90;;;;;;5098573;28;929;-32
2021/12/08 01:16:11;;;;;;;;;;;24.80;45.00;;;;;;5098795;28;963;-33
2021/12/08 01:18:37;;;;;;;;;;;24.80;45.00;;;;;;5099001;28;983;-33
2021/12/08 01:21:06;;;;;;;;;;;24.80;44.90;;;;;;5099066;28;852;-32
2021/12/08 01:23:33;;;;;;;;;;;24.80;44.90;;;;;;5098212;28;1011;-33
2021/12/08 01:25:59;;;;;;;;;;;24.90;44.80;;;;;;5098665;28;947;-31
2021/12/08 01:28:28;;;;;;;;;;;25.00;44.70;;;;;;5098894;28;1902;-34
2021/12/08 01:30:59;;;;;;;;;;;25.00;44.30;;;;;;5098469;28;977;-34
2021/12/08 01:33:27;;;;;;;;;;;24.90;44.50;;;;;;5099070;28;1117;-34
2021/12/08 01:35:54;;;;;;;;;;;25.10;44.40;;;;;;5099195;28;916;-33
2021/12/08 01:38:21;;;;;;;;;;;25.00;44.20;;;;;;5098680;28;998;-33
2021/12/08 01:40:47;;;;;;;;;;;25.10;44.20;;;;;;5098613;28;984;-33
2021/12/08 01:43:24;;;;;;;;;;;25.00;44.20;;;;;;5098741;28;1015;-33
2021/12/08 01:46:00;;;;;;;;;;;25.20;44.20;;;;;;5098879;28;960;-33
2021/12/08 01:48:29;;;;;;;;;;;25.00;44.30;;;;;;5098017;28;1986;-32
2021/12/08 01:50:58;;;;;;;;;;;25.10;44.30;;;;;;5098685;28;1122;-35
2021/12/08 01:53:25;;;;;;;;;;;25.00;44.20;;;;;;5098729;28;1000;-35
2021/12/08 01:55:53;;;;;;;;;;;25.10;44.30;;;;;;5102271;28;992;-32
2021/12/08 01:58:20;;;;;;;;;;;25.00;44.20;;;;;;5102177;28;1027;-33
2021/12/08 02:00:48;;;;;;;;;;;25.00;44.20;;;;;;5102164;28;992;-34
2021/12/08 02:03:15;;;;;;;;;;;25.10;44.20;;;;;;5102481;28;932;-33
2021/12/08 02:05:43;;;;;;;;;;;25.00;44.20;;;;;;5102393;28;975;-34
2021/12/08 02:08:10;;;;;;;;;;;25.00;44.30;;;;;;5102410;28;1185;-31
2021/12/08 02:10:38;;;;;;;;;;;25.20;44.10;;;;;;5102128;28;999;-34
2021/12/08 02:13:05;;;;;;;;;;;25.10;44.10;;;;;;5101607;28;1232;-34
2021/12/08 02:15:33;;;;;;;;;;;25.20;44.00;;;;;;5101647;28;973;-32
2021/12/08 02:18:00;;;;;;;;;;;25.20;43.90;;;;;;5102011;28;948;-32
2021/12/08 02:20:28;;;;;;;;;;;25.10;44.10;;;;;;5101318;28;990;-34
2021/12/08 02:22:56;;;;;;;;;;;25.00;44.20;;;;;;5101629;28;1119;-32
2021/12/08 02:25:24;;;;;;;;;;;25.00;44.20;;;;;;5102191;28;1828;-33
2021/12/08 02:27:52;;;;;;;;;;;25.10;44.00;;;;;;5102122;28;984;-33
2021/12/08 02:30:21;;;;;;;;;;;25.20;44.10;;;;;;5101926;28;1901;-32
2021/12/08 02:46:44;;;;;;;;;;;25.00;44.00;;;;;;5101490;28;686;-32
2021/12/08 02:49:11;;;;;;;;;;;25.00;44.00;;;;;;5101619;28;1987;-32
2021/12/08 02:51:38;;;;;;;;;;;25.10;43.90;;;;;;5101386;28;953;-34
2021/12/08 02:54:07;;;;;;;;;;;25.20;43.90;;;;;;5101562;28;1032;-35
2021/12/08 02:56:33;;;;;;;;;;;25.10;43.80;;;;;;5101639;28;980;-31
2021/12/08 02:59:01;;;;;;;;;;;25.20;43.70;;;;;;5101263;28;931;-34
2021/12/08 03:01:29;;;;;;;;;;;25.20;43.70;;;;;;5101258;28;961;-32
2021/12/08 03:03:55;;;;;;;;;;;25.30;43.70;;;;;;5101339;28;952;-32
2021/12/08 03:06:22;;;;;;;;;;;25.20;43.70;;;;;;5099879;28;984;-34
2021/12/08 03:08:49;;;;;;;;;;;25.20;43.70;;;;;;5100922;28;1914;-33
2021/12/08 03:11:17;;;;;;;;;;;25.20;43.50;;;;;;5101137;28;931;-32
2021/12/08 03:13:46;;;;;;;;;;;25.10;43.50;;;;;;5101137;28;932;-33
2021/12/08 03:16:14;;;;;;;;;;;25.20;43.60;;;;;;5100605;28;880;-34
2021/12/08 03:18:42;;;;;;;;;;;25.10;43.70;;;;;;5100560;28;1034;-34
2021/12/08 03:21:10;;;;;;;;;;;25.10;43.60;;;;;;5100831;28;932;-34
2021/12/08 03:23:48;;;;;;;;;;;25.10;43.70;;;;;;5100995;28;978;-32
2021/12/08 03:26:15;;;;;;;;;;;25.00;43.60;;;;;;5100505;28;933;-33
2021/12/08 03:28:57;;;;;;;;;;;25.00;43.80;;;;;;5100886;28;1981;-34
2021/12/08 03:31:29;;;;;;;;;;;25.00;44.00;;;;;;5101110;28;956;-33
2021/12/08 03:33:56;;;;;;;;;;;24.90;44.00;;;;;;5100686;28;929;-33
2021/12/08 03:36:23;;;;;;;;;;;24.80;44.20;;;;;;5100865;28;1034;-35
2021/12/08 03:38:50;;;;;;;;;;;24.70;44.30;;;;;;5100755;28;1022;-33
2021/12/08 03:41:17;;;;;;;;;;;24.60;44.40;;;;;;5101176;28;1134;-33
2021/12/08 03:43:45;;;;;;;;;;;24.60;44.70;;;;;;5100843;28;980;-33
2021/12/08 03:46:13;;;;;;;;;;;24.50;44.70;;;;;;5100770;28;940;-34
2021/12/08 03:48:47;;;;;;;;;;;24.30;45.00;;;;;;5100527;28;1898;-34
2021/12/08 03:51:14;;;;;;;;;;;24.10;45.00;;;;;;5100750;28;961;-31
2021/12/08 03:53:40;;;;;;;;;;;24.20;45.30;;;;;;5100286;28;1016;-33
2021/12/08 03:56:07;;;;;;;;;;;24.00;45.50;;;;;;5099994;28;976;-32
2021/12/08 03:58:35;;;;;;;;;;;24.00;45.70;;;;;;5099719;28;1162;-32
2021/12/08 04:01:03;;;;;;;;;;;23.90;45.70;;;;;;5099652;28;1078;-32
2021/12/08 04:03:32;;;;;;;;;;;23.80;45.90;;;;;;5099631;28;988;-32
2021/12/08 04:06:04;;;;;;;;;;;23.90;45.90;;;;;;5099669;28;948;-32
2021/12/08 04:08:38;;;;;;;;;;;23.60;46.00;;;;;;5099690;28;1154;-31
2021/12/08 04:11:06;;;;;;;;;;;23.60;46.60;;;;;;5099461;28;1909;-31
2021/12/08 04:13:34;;;;;;;;;;;23.60;46.70;;;;;;5099717;28;952;-32
2021/12/08 04:16:02;;;;;;;;;;;23.40;46.80;;;;;;5099505;28;1000;-31
2021/12/08 04:18:29;;;;;;;;;;;23.30;47.00;;;;;;5099288;28;1935;-32
2021/12/08 04:20:58;;;;;;;;;;;23.30;47.20;;;;;;5099400;28;1841;-34
2021/12/08 04:23:26;;;;;;;;;;;23.20;47.40;;;;;;5099464;28;970;-31
2021/12/08 04:25:56;;;;;;;;;;;23.20;47.60;;;;;;5099898;28;1000;-31
2021/12/08 04:28:24;;;;;;;;;;;22.90;48.00;;;;;;5099376;28;1042;-31
2021/12/08 04:30:52;;;;;;;;;;;22.90;48.50;;;;;;5098769;28;1905;-32
2021/12/08 04:33:21;;;;;;;;;;;22.70;48.40;;;;;;5099213;28;1039;-31
2021/12/08 04:35:49;;;;;;;;;;;22.70;48.70;;;;;;5099068;28;940;-32
2021/12/08 04:38:19;;;;;;;;;;;22.70;48.90;;;;;;5099316;28;1387;-31
2021/12/08 04:40:52;;;;;;;;;;;22.50;49.20;;;;;;5099061;28;939;-32
2021/12/08 04:43:26;;;;;;;;;;;22.50;49.40;;;;;;5099416;28;1003;-32
2021/12/08 04:46:02;;;;;;;;;;;22.50;49.40;;;;;;5099223;28;964;-31
2021/12/08 04:48:46;;;;;;;;;;;22.40;49.50;;;;;;5099121;28;989;-33
2021/12/08 04:51:34;;;;;;;;;;;22.50;49.40;;;;;;5098886;28;2000;-31
2021/12/08 05:02:33;;;;;;;;;;;22.50;49.90;;;;;;5098652;28;657;-34
2021/12/08 05:05:14;;;;;;;;;;;22.40;49.90;;;;;;5099453;28;1058;-31
2021/12/08 05:07:51;;;;;;;;;;;22.40;49.80;;;;;;5098630;28;1205;-33
2021/12/08 05:10:20;;;;;;;;;;;22.40;50.00;;;;;;5099127;28;1902;-32
2021/12/08 05:12:48;;;;;;;;;;;22.40;50.00;;;;;;5099059;28;987;-33
2021/12/08 05:15:17;;;;;;;;;;;22.40;49.80;;;;;;5098865;28;1427;-33
2021/12/08 05:17:46;;;;;;;;;;;22.40;50.00;;;;;;5098672;28;991;-34
2021/12/08 05:20:18;;;;;;;;;;;22.40;49.70;;;;;;5098519;28;1028;-33
2021/12/08 05:22:48;;;;;;;;;;;22.40;49.90;;;;;;5098849;28;960;-32
2021/12/08 05:25:23;;;;;;;;;;;22.40;49.90;;;;;;5098624;28;1945;-33
2021/12/08 05:27:52;;;;;;;;;;;22.40;49.90;;;;;;5098065;28;985;-33
2021/12/08 05:30:21;;;;;;;;;;;22.40;50.00;;;;;;5097064;28;1978;-33
2021/12/08 05:32:49;;;;;;;;;;;22.30;49.90;;;;;;5097643;28;893;-33
2021/12/08 05:35:19;;;;;;;;;;;22.40;50.10;;;;;;5097982;28;1038;-33
2021/12/08 05:37:46;;;;;;;;;;;22.40;50.00;;;;;;5097456;28;983;-33
2021/12/08 05:40:16;;;;;;;;;;;22.30;50.00;;;;;;5097201;28;1070;-32
2021/12/08 05:42:43;;;;;;;;;;;22.30;50.10;;;;;;5097618;28;992;-33
2021/12/08 05:45:12;;;;;;;;;;;22.30;50.20;;;;;;5098012;28;1014;-33
2021/12/08 05:47:40;;;;;;;;;;;22.30;50.10;;;;;;5097954;28;992;-32
2021/12/08 05:50:08;;;;;;;;;;;22.20;50.30;;;;;;5097462;28;1967;-32
2021/12/08 05:52:36;;;;;;;;;;;22.20;50.20;;;;;;5097853;28;992;-34
2021/12/08 05:55:05;;;;;;;;;;;22.20;50.50;;;;;;5098103;28;1004;-32
2021/12/08 05:57:34;;;;;;;;;;;22.20;50.40;;;;;;5097652;28;984;-34
2021/12/08 06:00:00;;;;;;;;;;;22.30;50.40;;;;;;5097574;28;1066;-34
2021/12/08 06:02:28;;;;;;;;;;;22.30;50.20;;;;;;5097804;28;948;-31
2021/12/08 06:04:57;;;;;;;;;;;22.30;50.30;;;;;;5097364;28;976;-33
2021/12/08 06:07:24;;;;;;;;;;;22.30;50.30;;;;;;5096604;28;1114;-32
2021/12/08 06:09:53;;;;;;;;;;;22.30;50.30;;;;;;5096433;28;1906;-31
2021/12/08 06:12:20;;;;;;;;;;;22.30;50.20;;;;;;5096447;28;1479;-33
2021/12/08 06:14:53;;;;;;;;;;;22.30;50.20;;;;;;5096059;28;1063;-32
2021/12/08 06:17:20;;;;;;;;;;;22.30;50.20;;;;;;5095300;28;1147;-32
2021/12/08 06:19:48;;;;;;;;;;;22.30;50.10;;;;;;5096114;28;987;-33
2021/12/08 06:22:16;;;;;;;;;;;22.30;50.20;;;;;;5094602;28;1007;-33
2021/12/08 06:24:43;;;;;;;;;;;22.30;50.10;;;;;;5095429;28;1383;-31
2021/12/08 06:27:11;;;;;;;;;;;22.30;50.00;;;;;;5094649;28;937;-30
2021/12/08 06:29:38;;;;;;;;;;;22.30;50.10;;;;;;5094501;28;1968;-32
2021/12/08 06:32:07;;;;;;;;;;;22.30;50.20;;;;;;5095093;28;1089;-32
2021/12/08 06:34:34;;;;;;;;;;;22.30;50.10;;;;;;5095485;28;892;-34
2021/12/08 06:37:02;;;;;;;;;;;22.30;50.00;;;;;;5096215;28;944;-31
2021/12/08 06:39:31;;;;;;;;;;;22.30;50.00;;;;;;5095403;28;1044;-32
2021/12/08 06:41:59;;;;;;;;;;;22.40;49.90;;;;;;5098201;28;880;-34
2021/12/08 06:44:29;;;;;;;;;;;22.20;49.90;;;;;;5098803;28;991;-33
2021/12/08 06:46:56;;;;;;;;;;;22.30;49.90;;;;;;5098402;28;947;-31
2021/12/08 06:49:24;;;;;;;;;;;22.40;49.80;;;;;;5099122;28;1113;-31
2021/12/08 06:51:53;;;;;;;;;;;22.30;50.00;;;;;;5099178;28;1976;-31
2021/12/08 06:54:22;;;;;;;;;;;22.30;50.00;;;;;;5099864;28;994;-32
2021/12/08 06:56:53;;;;;;;;;;;22.30;50.00;;;;;;5100313;28;920;-32
2021/12/08 06:59:22;;;;;;;;;;;22.30;50.00;;;;;;5099376;28;1428;-32
2021/12/08 07:01:59;;;;;;;;;;;22.30;50.00;;;;;;5098950;28;1011;-34
2021/12/08 07:04:30;;;;;;;;;;;22.20;50.00;;;;;;5099656;28;1019;-34
2021/12/08 07:07:01;;;;;;;;;;;22.20;50.10;;;;;;5098771;28;1179;-33
2021/12/08 07:09:30;;;;;;;;;;;22.20;50.30;;;;;;5098887;28;1248;-35
2021/12/08 07:11:57;;;;;;;;;;;22.20;50.40;;;;;;5098508;28;1910;-32
2021/12/08 07:14:24;;;;;;;;;;;22.10;50.40;;;;;;5098539;28;988;-32
2021/12/08 07:16:54;;;;;;;;;;;22.10;50.60;;;;;;5099405;28;995;-32
2021/12/08 07:19:28;;;;;;;;;;;22.10;50.50;;;;;;5098963;28;980;-33
2021/12/08 07:21:56;;;;;;;;;;;22.20;50.60;;;;;;5099081;28;924;-33
2021/12/08 07:24:24;;;;;;;;;;;22.20;50.40;;;;;;5099572;28;1019;-33
2021/12/08 07:26:53;;;;;;;;;;;22.10;50.40;;;;;;5098518;28;1145;-32
2021/12/08 07:29:23;;;;;;;;;;;22.10;50.30;;;;;;5098920;28;987;-30
2021/12/08 07:31:52;;;;;;;;;;;22.10;50.30;;;;;;5098520;28;1973;-30
2021/12/08 07:34:21;;;;;;;;;;;22.00;50.30;;;;;;5097858;28;1027;-29
2021/12/08 07:36:54;;;;;;;;;;;22.00;51.20;;;;;;5097913;28;999;-31
2021/12/08 07:39:22;;;;;;;;;;;22.00;50.30;;;;;;5097304;28;976;-30
2021/12/08 07:41:52;;;;;;;;;;;22.00;50.30;;;;;;5091737;28;1969;-29
2021/12/08 07:44:20;;;;;;;;;;;22.00;50.10;;;;;;5091518;28;1399;-29
2021/12/08 07:46:48;;;;;;;;;;;22.00;50.00;;;;;;5076863;28;991;-31
2021/12/08 07:49:16;;;;;;;;;;;22.00;50.30;;;;;;5078136;28;921;-31
2021/12/08 07:51:46;;;;;;;;;;;22.00;50.40;;;;;;5078076;28;1918;-31
2021/12/08 07:54:13;;;;;;;;;;;22.00;50.20;;;;;;5072590;28;1410;-32
2021/12/08 07:56:43;;;;;;;;;;;22.00;50.30;;;;;;5076701;28;1024;-30
2021/12/08 07:59:11;;;;;;;;;;;22.00;50.10;;;;;;5078406;28;999;-32
2021/12/08 08:01:40;;;;;;;;;;;22.00;50.40;;;;;;5077710;28;920;-30
2021/12/08 08:04:09;;;;;;;;;;;22.00;50.30;;;;;;5073180;28;991;-31
2021/12/08 08:06:37;;;;;;;;;;;22.00;50.20;;;;;;5077140;28;976;-31
2021/12/08 08:09:07;;;;;;;;;;;21.90;50.20;;;;;;5077046;28;1267;-32
2021/12/08 08:11:36;;;;;;;;;;;22.00;50.40;;;;;;5076836;28;1980;-29
2021/12/08 08:14:03;;;;;;;;;;;22.00;50.20;;;;;;5072353;28;1036;-30
2021/12/08 08:16:33;;;;;;;;;;;21.90;50.10;;;;;;5076639;28;921;-32
2021/12/08 08:19:06;;;;;;;;;;;21.90;50.10;;;;;;5076715;28;1789;-31
2021/12/08 08:21:37;;;;;;;;;;;21.90;50.30;;;;;;5077727;28;937;-31
2021/12/08 08:24:06;;;;;;;;;;;21.90;50.40;;;;;;5068941;28;2017;-29
2021/12/08 08:26:33;;;;;;;;;;;21.90;50.30;;;;;;5076348;28;993;-32
2021/12/08 08:29:00;;;;;;;;;;;21.90;50.20;;;;;;5077221;28;1140;-29
2021/12/08 08:31:30;;;;;;;;;;;21.90;50.50;;;;;;5077438;28;1973;-30
2021/12/08 08:33:57;;;;;;;;;;;21.90;50.20;;;;;;5078386;28;1667;-30
2021/12/08 08:36:26;;;;;;;;;;;21.90;50.10;;;;;;5096116;28;1112;-30
2021/12/08 08:38:54;;;;;;;;;;;22.00;50.20;;;;;;5096265;28;952;-30
2021/12/08 08:41:24;;;;;;;;;;;21.90;50.20;;;;;;5096030;28;1689;-31
2021/12/08 08:43:52;;;;;;;;;;;21.90;50.00;;;;;;5089756;28;966;-30
2021/12/08 08:46:21;;;;;;;;;;;21.90;50.10;;;;;;5095848;28;972;-32
2021/12/08 08:48:51;;;;;;;;;;;21.90;50.20;;;;;;5094854;28;1376;-29
2021/12/08 08:51:19;;;;;;;;;;;21.90;50.10;;;;;;5095275;28;1988;-33
2021/12/08 08:53:47;;;;;;;;;;;21.90;50.00;;;;;;5088693;28;980;-29
2021/12/08 08:56:16;;;;;;;;;;;21.90;50.10;;;;;;5096350;28;1198;-31
2021/12/08 08:58:45;;;;;;;;;;;21.90;50.10;;;;;;5097471;28;952;-33
2021/12/08 09:01:14;;;;;;;;;;;21.90;49.80;;;;;;5097151;28;1415;-32
2021/12/08 09:03:43;;;;;;;;;;;21.90;50.10;;;;;;5092164;28;960;-32
2021/12/08 09:06:14;;;;;;;;;;;21.90;50.10;;;;;;5096160;28;1050;-32
2021/12/08 09:08:42;;;;;;;;;;;21.90;50.30;;;;;;5096091;28;928;-30
2021/12/08 09:11:11;;;;;;;;;;;21.90;50.30;;;;;;5095939;28;1980;-32
2021/12/08 09:13:39;;;;;;;;;;;22.00;50.40;;;;;;5087934;28;1023;-29
2021/12/08 09:16:09;;;;;;;;;;;22.00;50.10;;;;;;5096067;28;1018;-31
2021/12/08 09:18:44;;;;;;;;;;;22.10;50.10;;;;;;5096548;28;1027;-30
2021/12/08 09:21:17;;;;;;;;;;;22.00;50.10;;;;;;5096813;28;940;-31
2021/12/08 09:23:46;;;;;;;;;;;22.00;50.20;;;;;;5090134;28;848;-29
2021/12/08 09:26:14;;;;;;;;;;;21.90;50.30;;;;;;5095437;28;979;-30
2021/12/08 09:28:45;;;;;;;;;;;22.00;50.30;;;;;;5095665;28;1009;-29
2021/12/08 09:31:18;;;;;;;;;;;22.10;50.40;;;;;;5096123;28;1910;-30
2021/12/08 09:33:51;;;;;;;;;;;22.10;50.20;;;;;;5088807;28;1129;-30
2021/12/08 09:36:19;;;;;;;;;;;22.10;50.40;;;;;;5096757;28;900;-29
2021/12/08 09:38:48;;;;;;;;;;;22.10;50.70;;;;;;5096478;28;1163;-30
2021/12/08 09:41:16;;;;;;;;;;;22.10;50.40;;;;;;5096782;28;934;-33
2021/12/08 09:43:45;;;;;;;;;;;22.10;50.50;;;;;;5089151;28;1185;-28
2021/12/08 09:46:15;;;;;;;;;;;22.20;50.30;;;;;;5096763;28;990;-25
2021/12/08 09:48:43;;;;;;;;;;;22.20;50.20;;;;;;5095900;28;1392;-26
2021/12/08 09:51:09;;;;;;;;;;;22.40;50.00;;;;;;5095914;28;1979;-27
2021/12/08 09:53:36;;;;;;;;;;;22.40;49.70;;;;;;5089978;28;1015;-28
2021/12/08 09:56:04;;;;;;;;;;;22.40;49.80;;;;;;5095319;28;1385;-28
2021/12/08 09:58:31;;;;;;;;;;;22.40;50.00;;;;;;5094893;28;928;-29
2021/12/08 10:00:59;;;;;;;;;;;22.40;50.10;;;;;;5088181;28;1767;-27
2021/12/08 10:03:27;;;;;;;;;;;22.20;50.10;;;;;;5091511;28;943;-27
2021/12/08 10:05:55;;;;;;;;;;;22.20;50.20;;;;;;5094345;28;1003;-27
2021/12/08 10:08:21;;;;;;;;;;;22.20;50.20;;;;;;5094967;28;1406;-27
2021/12/08 10:10:48;;;;;;;;;;;22.10;50.40;;;;;;5087184;28;1914;-28
2021/12/08 10:13:16;;;;;;;;;;;22.10;50.60;;;;;;5084443;28;1943;-31
2021/12/08 10:15:43;;;;;;;;;;;22.00;50.60;;;;;;5092049;28;980;-27
2021/12/08 10:18:11;;;;;;;;;;;22.00;50.70;;;;;;5095465;28;1961;-29
2021/12/08 10:20:41;;;;;;;;;;;22.00;50.70;;;;;;5090708;28;1335;-28
2021/12/08 10:23:13;;;;;;;;;;;22.00;50.50;;;;;;5093530;28;991;-29
2021/12/08 10:25:41;;;;;;;;;;;21.90;50.90;;;;;;5095540;28;1008;-27
2021/12/08 10:28:10;;;;;;;;;;;21.90;50.80;;;;;;5076855;28;1138;-27
2021/12/08 10:30:41;;;;;;;;;;;21.90;50.90;;;;;;5077800;28;986;-29
2021/12/08 10:33:12;;;;;;;;;;;21.90;50.80;;;;;;5073110;28;1906;-26
2021/12/08 10:35:48;;;;;;;;;;;21.90;50.80;;;;;;5077122;28;1075;-27
2021/12/08 10:38:16;;;;;;;;;;;21.90;51.00;;;;;;5078591;28;1414;-28
2021/12/08 10:41:00;;;;;;;;;;;21.90;50.90;;;;;;5079117;28;996;-27
2021/12/08 10:43:27;;;;;;;;;;;21.80;50.70;;;;;;5082945;28;1921;-28
2021/12/08 10:46:05;;;;;;;;;;;21.90;50.80;;;;;;5091890;28;977;-29
2021/12/08 10:48:38;;;;;;;;;;;21.80;50.80;;;;;;5098761;28;1380;-29
2021/12/08 10:54:26;;;;;;;;;;;21.80;50.80;;;;;;5090762;28;918;-28
2021/12/08 10:56:56;;;;;;;;;;;21.80;51.00;;;;;;5098055;28;1030;-29
2021/12/08 10:59:24;;;;;;;;;;;21.80;50.90;;;;;;5098258;28;1031;-27
2021/12/08 11:01:50;;;;;;;;;;;21.80;51.00;;;;;;5098387;28;976;-35
2021/12/08 11:04:17;;;;;;;;;;;21.80;50.80;;;;;;5089178;28;940;-29
2021/12/08 11:06:47;;;;;;;;;;;21.70;50.80;;;;;;5097882;28;952;-27
2021/12/08 11:09:14;;;;;;;;;;;21.70;50.70;;;;;;5098060;28;1786;-29
2021/12/08 11:11:43;;;;;;;;;;;21.80;50.90;;;;;;5098117;28;1993;-26
2021/12/08 11:14:11;;;;;;;;;;;21.80;51.00;;;;;;5090046;28;1150;-35
2021/12/08 11:16:39;;;;;;;;;;;21.80;50.80;;;;;;5097132;28;1098;-26
2021/12/08 11:19:10;;;;;;;;;;;21.80;51.00;;;;;;5097372;28;971;-27
2021/12/08 11:21:39;;;;;;;;;;;21.80;50.70;;;;;;5097617;28;936;-26
2021/12/08 11:24:11;;;;;;;;;;;21.80;50.70;;;;;;5089080;28;1023;-28
2021/12/08 11:26:41;;;;;;;;;;;21.80;50.70;;;;;;5096209;28;1430;-26
2021/12/08 11:29:09;;;;;;;;;;;21.80;50.60;;;;;;5095455;28;949;-28
2021/12/08 11:31:37;;;;;;;;;;;21.80;50.60;;;;;;5096598;28;1901;-27
2021/12/08 11:34:06;;;;;;;;;;;21.80;50.70;;;;;;5091105;28;1004;-28
2021/12/08 11:36:34;;;;;;;;;;;21.90;50.80;;;;;;5096420;28;1421;-27
2021/12/08 11:39:06;;;;;;;;;;;21.80;50.40;;;;;;5095946;28;1364;-27
2021/12/08 11:41:36;;;;;;;;;;;21.80;50.60;;;;;;5096387;28;1365;-26
2021/12/08 11:44:06;;;;;;;;;;;21.80;50.70;;;;;;5089701;28;1027;-27
2021/12/08 11:46:34;;;;;;;;;;;21.90;50.70;;;;;;5096018;28;972;-27
2021/12/08 11:49:06;;;;;;;;;;;21.80;50.40;;;;;;5096360;28;1021;-26
2021/12/08 11:51:35;;;;;;;;;;;21.90;50.80;;;;;;5096053;28;1898;-29
2021/12/08 11:54:03;;;;;;;;;;;21.80;50.60;;;;;;5086827;28;1105;-27
2021/12/08 11:56:38;;;;;;;;;;;21.90;50.70;;;;;;5095364;28;1004;-28
2021/12/08 11:59:07;;;;;;;;;;;21.90;50.70;;;;;;5095339;28;1176;-31
2021/12/08 12:01:36;;;;;;;;;;;21.80;50.70;;;;;;5094780;28;932;-26
2021/12/08 12:04:03;;;;;;;;;;;21.80;50.80;;;;;;5087888;28;1007;-28
2021/12/08 12:06:30;;;;;;;;;;;21.90;50.50;;;;;;5096548;28;1510;-27
2021/12/08 12:08:58;;;;;;;;;;;21.80;50.70;;;;;;5096168;28;1126;-31
2021/12/08 12:11:26;;;;;;;;;;;21.80;50.90;;;;;;5096129;28;1913;-27
2021/12/08 12:13:55;;;;;;;;;;;21.80;50.90;;;;;;5087055;28;996;-27
2021/12/08 12:16:22;;;;;;;;;;;21.80;50.70;;;;;;5096365;28;1089;-26
2021/12/08 12:18:50;;;;;;;;;;;21.80;50.80;;;;;;5095787;28;1033;-30
2021/12/08 12:21:26;;;;;;;;;;;21.80;50.90;;;;;;5095734;28;981;-27
2021/12/08 12:23:59;;;;;;;;;;;21.80;51.00;;;;;;5089159;28;1008;-27
2021/12/08 12:26:31;;;;;;;;;;;21.80;50.90;;;;;;5095569;28;1836;-29
2021/12/08 12:29:15;;;;;;;;;;;21.80;50.90;;;;;;5096132;28;936;-28
2021/12/08 12:31:45;;;;;;;;;;;21.90;51.00;;;;;;5096297;28;1976;-28
2021/12/08 12:34:23;;;;;;;;;;;21.90;50.80;;;;;;5091144;28;1145;-28
2021/12/08 12:36:50;;;;;;;;;;;21.80;50.60;;;;;;5089487;28;936;-28
2021/12/08 12:39:19;;;;;;;;;;;21.80;50.80;;;;;;5085608;28;968;-29
2021/12/08 12:41:58;;;;;;;;;;;21.80;50.70;;;;;;5090138;28;1009;-27
2021/12/08 12:44:27;;;;;;;;;;;21.90;50.60;;;;;;5085059;28;972;-28
2021/12/08 12:47:26;;;;;;;;;;;21.80;50.50;;;;;;5095559;28;1330;-26
2021/12/08 12:50:10;;;;;;;;;;;21.90;50.50;;;;;;5013295;28;1025;-30
2021/12/08 12:52:38;;;;;;;;;;;21.90;50.70;;;;;;5086654;28;1983;-26
2021/12/08 12:55:08;;;;;;;;;;;21.90;50.70;;;;;;5095426;28;1038;-27
2021/12/08 12:57:50;;;;;;;;;;;21.90;50.50;;;;;;5094510;28;1412;-29
2021/12/08 13:00:27;;;;;;;;;;;21.90;50.70;;;;;;5095488;28;1119;-27
2021/12/08 13:02:53;;;;;;;;;;;21.90;50.50;;;;;;5095532;28;940;-29
2021/12/08 13:05:20;;;;;;;;;;;21.90;50.70;;;;;;5095828;28;1012;-26
2021/12/08 13:07:57;;;;;;;;;;;21.90;50.80;;;;;;5095193;28;1774;-28
2021/12/08 13:10:33;;;;;;;;;;;21.80;50.80;;;;;;5095505;28;1145;-27
2021/12/08 13:13:10;;;;;;;;;;;21.70;50.80;;;;;;5095152;28;1991;-26
2021/12/08 13:15:38;;;;;;;;;;;21.80;50.60;;;;;;5096144;28;1005;-29
2021/12/08 13:18:06;;;;;;;;;;;21.90;50.70;;;;;;5095984;28;951;-28
2021/12/08 13:20:34;;;;;;;;;;;21.90;50.60;;;;;;5096621;28;1109;-28
2021/12/08 13:23:03;;;;;;;;;;;21.90;50.50;;;;;;5095903;28;1567;-26
2021/12/08 13:25:59;;;;;;;;;;;22.00;50.50;;;;;;5095650;28;968;-27
2021/12/08 13:28:31;;;;;;;;;;;21.90;50.70;;;;;;5093735;28;1006;-27
2021/12/08 13:31:07;;;;;;;;;;;21.80;50.70;;;;;;5095980;28;1004;-26
2021/12/08 13:33:35;;;;;;;;;;;21.90;50.70;;;;;;5095353;28;1909;-27
2021/12/08 13:36:28;;;;;;;;;;;21.90;50.60;;;;;;5096036;28;1135;-27
2021/12/08 13:39:07;;;;;;;;;;;21.90;50.50;;;;;;5095247;28;898;-28
2021/12/08 13:41:34;;;;;;;;;;;21.90;50.60;;;;;;5095390;28;686;-27
2021/12/08 13:44:03;;;;;;;;;;;21.90;50.60;;;;;;5094475;28;1111;-27
2021/12/08 13:46:41;;;;;;;;;;;21.90;50.50;;;;;;5095854;28;1015;-27
2021/12/08 13:49:13;;;;;;;;;;;22.00;50.40;;;;;;5095541;28;996;-27
2021/12/08 13:51:40;;;;;;;;;;;22.00;50.50;;;;;;5099975;28;924;-26
2021/12/08 13:54:25;;;;;;;;;;;21.90;50.40;;;;;;5100236;28;1906;-29
2021/12/08 13:56:53;;;;;;;;;;;22.00;50.30;;;;;;5099636;28;1000;-27
2021/12/08 13:59:34;;;;;;;;;;;22.00;50.50;;;;;;5099516;28;964;-32
2021/12/08 14:02:16;;;;;;;;;;;21.90;50.50;;;;;;5099168;28;1731;-27
2021/12/08 14:04:44;;;;;;;;;;;21.90;50.30;;;;;;5098810;28;1307;-27
2021/12/08 14:07:15;;;;;;;;;;;21.90;50.50;;;;;;5098248;28;1109;-27
2021/12/08 14:09:42;;;;;;;;;;;21.90;50.60;;;;;;5099457;28;1915;-26
2021/12/08 14:12:09;;;;;;;;;;;21.90;50.50;;;;;;5098884;28;1910;-27
2021/12/08 14:14:36;;;;;;;;;;;21.90;50.60;;;;;;5099317;28;981;-30
2021/12/08 14:17:03;;;;;;;;;;;21.90;50.50;;;;;;5100119;28;1020;-27
2021/12/08 14:19:37;;;;;;;;;;;21.90;50.70;;;;;;5099453;28;1161;-28
2021/12/08 14:22:05;;;;;;;;;;;21.80;50.60;;;;;;5099055;28;993;-28
2021/12/08 14:24:32;;;;;;;;;;;21.90;50.70;;;;;;5098607;28;959;-29
2021/12/08 14:26:58;;;;;;;;;;;21.80;50.60;;;;;;5098618;28;1069;-29
2021/12/08 14:29:26;;;;;;;;;;;21.80;50.60;;;;;;5098438;28;1005;-31
2021/12/08 14:31:53;;;;;;;;;;;21.80;50.60;;;;;;5098147;28;1011;-27
2021/12/08 14:34:21;;;;;;;;;;;21.80;50.20;;;;;;5098482;28;1922;-29
2021/12/08 14:36:49;;;;;;;;;;;21.80;50.60;;;;;;5098168;28;936;-28
2021/12/08 14:39:22;;;;;;;;;;;21.80;50.60;;;;;;5098438;28;1157;-28
2021/12/08 14:41:51;;;;;;;;;;;21.90;50.60;;;;;;5099016;28;941;-28
2021/12/08 14:44:20;;;;;;;;;;;21.90;50.50;;;;;;5099447;28;1055;-29
2021/12/08 14:46:49;;;;;;;;;;;21.90;50.70;;;;;;5098673;28;1583;-28
2021/12/08 14:49:18;;;;;;;;;;;21.80;50.60;;;;;;5098376;28;1015;-30
2021/12/08 14:51:45;;;;;;;;;;;21.80;50.50;;;;;;5097814;28;1035;-27
2021/12/08 14:54:13;;;;;;;;;;;21.80;50.60;;;;;;5097964;28;1902;-28
2021/12/08 14:56:41;;;;;;;;;;;21.80;50.50;;;;;;5097909;28;944;-29
2021/12/08 14:59:08;;;;;;;;;;;21.80;50.60;;;;;;5097983;28;1474;-28
2021/12/08 15:01:36;;;;;;;;;;;21.80;50.60;;;;;;5097873;28;996;-26
2021/12/08 15:04:03;;;;;;;;;;;21.80;50.60;;;;;;5097912;28;1000;-28
2021/12/08 15:06:31;;;;;;;;;;;21.80;50.40;;;;;;5097611;28;925;-29
2021/12/08 15:08:57;;;;;;;;;;;21.80;50.70;;;;;;5094001;28;1216;-29
2021/12/08 15:11:25;;;;;;;;;;;21.80;50.50;;;;;;5095062;28;881;-30
2021/12/08 15:13:53;;;;;;;;;;;21.80;50.40;;;;;;5098211;28;1980;-27
2021/12/08 15:16:21;;;;;;;;;;;21.80;50.50;;;;;;5098677;28;970;-28
2021/12/08 15:18:49;;;;;;;;;;;21.80;50.60;;;;;;5095457;28;1271;-28